createdAt,value
2023-03-10T00:00:15.144Z,981.74
2023-03-10T00:01:15.132Z,981.73
2023-03-10T00:02:15.110Z,981.68
2023-03-10T00:03:15.118Z,981.66
2023-03-10T00:04:15.164Z,981.71
2023-03-10T00:05:15.100Z,981.67
2023-03-10T00:06:15.075Z,981.74
2023-03-10T00:07:15.057Z,981.68
2023-03-10T00:08:15.044Z,981.66
2023-03-10T00:09:15.034Z,981.59
2023-03-10T00:10:15.028Z,981.65
2023-03-10T00:11:15.020Z,981.55
2023-03-10T00:12:15.006Z,981.59
2023-03-10T00:13:15.006Z,981.59
2023-03-10T00:14:14.978Z,981.55
2023-03-10T00:15:14.980Z,981.45
2023-03-10T00:16:15.029Z,981.42
2023-03-10T00:17:14.950Z,981.43
2023-03-10T00:18:14.931Z,981.44
2023-03-10T00:19:14.955Z,981.48
2023-03-10T00:20:14.910Z,981.41
2023-03-10T00:21:14.911Z,981.37
2023-03-10T00:22:14.909Z,981.36
2023-03-10T00:23:14.881Z,981.25
2023-03-10T00:24:14.868Z,981.12
2023-03-10T00:25:14.857Z,981.10
2023-03-10T00:26:14.846Z,981.16
2023-03-10T00:27:14.859Z,981.12
2023-03-10T00:28:14.834Z,981.13
2023-03-10T00:29:14.830Z,981.13
2023-03-10T00:30:14.811Z,981.17
2023-03-10T00:31:14.880Z,981.10
2023-03-10T00:32:14.818Z,981.09
2023-03-10T00:33:14.777Z,981.09
2023-03-10T00:34:14.760Z,981.11
2023-03-10T00:35:14.839Z,981.05
2023-03-10T00:36:14.879Z,981.00
2023-03-10T00:37:14.748Z,981.00
2023-03-10T00:38:14.739Z,981.00
2023-03-10T00:39:14.720Z,980.92
2023-03-10T00:40:14.715Z,980.95
2023-03-10T00:41:14.696Z,980.90
2023-03-10T00:42:14.676Z,980.91
2023-03-10T00:43:14.684Z,980.92
2023-03-10T00:44:14.663Z,980.87
2023-03-10T00:45:14.661Z,980.90
2023-03-10T00:46:14.714Z,980.88
2023-03-10T00:47:14.651Z,980.84
2023-03-10T00:48:14.612Z,980.82
2023-03-10T00:49:14.642Z,980.85
2023-03-10T00:50:14.595Z,980.83
2023-03-10T00:51:14.808Z,980.80
2023-03-10T00:52:14.582Z,980.79
2023-03-10T00:53:14.566Z,980.82
2023-03-10T00:54:14.548Z,980.84
2023-03-10T00:55:14.554Z,980.78
2023-03-10T00:56:14.534Z,980.81
2023-03-10T00:57:14.533Z,980.76
2023-03-10T00:58:14.509Z,980.70
2023-03-10T00:59:14.507Z,980.74
2023-03-10T01:00:14.509Z,980.75
2023-03-10T01:01:14.520Z,980.82
2023-03-10T01:02:14.477Z,980.88
2023-03-10T01:03:14.455Z,980.91
2023-03-10T01:04:14.517Z,980.84
2023-03-10T01:05:14.433Z,980.89
2023-03-10T01:06:14.449Z,980.73
2023-03-10T01:07:14.448Z,980.74
2023-03-10T01:08:14.414Z,980.71
2023-03-10T01:09:14.389Z,980.67
2023-03-10T01:10:14.373Z,980.68
2023-03-10T01:11:14.380Z,980.72
2023-03-10T01:12:14.365Z,980.69
2023-03-10T01:13:14.346Z,980.73
2023-03-10T01:14:14.339Z,980.71
2023-03-10T01:15:14.338Z,980.84
2023-03-10T01:16:14.427Z,980.79
2023-03-10T01:17:14.302Z,980.75
2023-03-10T01:18:14.313Z,980.63
2023-03-10T01:19:14.280Z,980.59
2023-03-10T01:20:14.267Z,980.61
2023-03-10T01:21:14.266Z,980.62
2023-03-10T01:22:14.247Z,980.67
2023-03-10T01:23:14.259Z,980.66
2023-03-10T01:24:14.233Z,980.62
2023-03-10T01:25:14.218Z,980.56
2023-03-10T01:26:15.221Z,980.51
2023-03-10T01:27:14.214Z,980.50
2023-03-10T01:28:14.184Z,980.53
2023-03-10T01:29:14.171Z,980.63
2023-03-10T01:30:14.170Z,980.70
2023-03-10T01:31:14.317Z,980.67
2023-03-10T01:32:14.178Z,980.60
2023-03-10T01:33:14.140Z,980.57
2023-03-10T01:34:14.133Z,980.56
2023-03-10T01:35:14.118Z,980.54
2023-03-10T01:36:14.128Z,980.53
2023-03-10T01:37:14.102Z,980.51
2023-03-10T01:38:14.071Z,980.44
2023-03-10T01:39:14.099Z,980.41
2023-03-10T01:40:14.062Z,980.47
2023-03-10T01:41:14.040Z,980.41
2023-03-10T01:42:14.028Z,980.44
2023-03-10T01:43:14.034Z,980.40
2023-03-10T01:44:14.003Z,980.40
2023-03-10T01:45:13.995Z,980.43
2023-03-10T01:46:14.014Z,980.48
2023-03-10T01:47:13.977Z,980.43
2023-03-10T01:48:13.966Z,980.43
2023-03-10T01:49:13.964Z,980.53
2023-03-10T01:50:13.956Z,980.48
2023-03-10T01:51:13.928Z,980.48
2023-03-10T01:52:13.920Z,980.41
2023-03-10T01:53:13.923Z,980.49
2023-03-10T01:54:13.910Z,980.50
2023-03-10T01:55:14.023Z,980.40
2023-03-10T01:56:13.870Z,980.39
2023-03-10T01:57:13.865Z,980.40
2023-03-10T01:58:13.856Z,980.39
2023-03-10T01:59:13.849Z,980.46
2023-03-10T02:00:13.836Z,980.45
2023-03-10T02:01:13.910Z,980.38
2023-03-10T02:02:13.857Z,980.46
2023-03-10T02:03:13.798Z,980.43
2023-03-10T02:04:13.793Z,980.41
2023-03-10T02:05:13.815Z,980.41
2023-03-10T02:06:13.768Z,980.42
2023-03-10T02:07:13.764Z,980.49
2023-03-10T02:08:13.744Z,980.43
2023-03-10T02:09:13.740Z,980.50
2023-03-10T02:10:13.728Z,980.50
2023-03-10T02:11:13.733Z,980.48
2023-03-10T02:12:13.714Z,980.42
2023-03-10T02:13:13.693Z,980.38
2023-03-10T02:14:14.640Z,980.61
2023-03-10T02:15:13.680Z,980.78
2023-03-10T02:16:13.755Z,980.63
2023-03-10T02:17:13.664Z,980.54
2023-03-10T02:18:13.651Z,980.59
2023-03-10T02:19:13.632Z,980.68
2023-03-10T02:20:13.623Z,980.60
2023-03-10T02:21:13.628Z,980.54
2023-03-10T02:22:13.593Z,980.47
2023-03-10T02:23:13.595Z,980.46
2023-03-10T02:24:13.582Z,980.48
2023-03-10T02:25:13.574Z,980.47
2023-03-10T02:26:13.556Z,980.52
2023-03-10T02:27:13.570Z,980.52
2023-03-10T02:28:13.534Z,980.48
2023-03-10T02:29:13.536Z,980.45
2023-03-10T02:30:13.515Z,980.41
2023-03-10T02:31:13.585Z,980.40
2023-03-10T02:32:13.562Z,980.40
2023-03-10T02:33:13.480Z,980.29
2023-03-10T02:34:13.481Z,980.29
2023-03-10T02:35:13.462Z,980.33
2023-03-10T02:36:13.632Z,980.30
2023-03-10T02:37:13.450Z,980.33
2023-03-10T02:38:13.423Z,980.41
2023-03-10T02:39:13.412Z,980.28
2023-03-10T02:40:13.411Z,980.34
2023-03-10T02:41:13.399Z,980.40
2023-03-10T02:42:13.384Z,980.28
2023-03-10T02:43:13.467Z,980.28
2023-03-10T02:44:13.362Z,980.27
2023-03-10T02:45:13.356Z,980.25
2023-03-10T02:46:13.418Z,980.24
2023-03-10T02:47:13.323Z,980.24
2023-03-10T02:48:13.335Z,980.16
2023-03-10T02:49:13.308Z,980.14
2023-03-10T02:50:13.305Z,980.12
2023-03-10T02:51:13.286Z,980.18
2023-03-10T02:52:13.272Z,980.22
2023-03-10T02:53:13.265Z,980.30
2023-03-10T02:54:13.271Z,980.29
2023-03-10T02:55:13.254Z,980.27
2023-03-10T02:56:13.235Z,980.26
2023-03-10T02:57:13.222Z,980.31
2023-03-10T02:58:13.220Z,980.33
2023-03-10T02:59:13.213Z,980.28
2023-03-10T03:00:13.193Z,980.29
2023-03-10T03:01:13.272Z,980.32
2023-03-10T03:02:13.171Z,980.34
2023-03-10T03:03:13.188Z,980.35
2023-03-10T03:04:13.216Z,980.31
2023-03-10T03:05:13.129Z,980.28
2023-03-10T03:06:13.128Z,980.38
2023-03-10T03:07:13.144Z,980.40
2023-03-10T03:08:13.108Z,980.43
2023-03-10T03:09:13.095Z,980.46
2023-03-10T03:10:13.085Z,980.41
2023-03-10T03:11:13.062Z,980.41
2023-03-10T03:12:13.066Z,980.45
2023-03-10T03:13:13.056Z,980.40
2023-03-10T03:14:13.034Z,980.40
2023-03-10T03:15:13.045Z,980.41
2023-03-10T03:16:13.057Z,980.42
2023-03-10T03:17:13.024Z,980.51
2023-03-10T03:18:13.001Z,980.42
2023-03-10T03:19:12.980Z,980.45
2023-03-10T03:20:12.975Z,980.41
2023-03-10T03:21:12.967Z,980.41
2023-03-10T03:22:12.955Z,980.36
2023-03-10T03:23:12.952Z,980.38
2023-03-10T03:24:12.927Z,980.36
2023-03-10T03:25:12.928Z,980.43
2023-03-10T03:26:12.926Z,980.36
2023-03-10T03:27:12.894Z,980.36
2023-03-10T03:28:12.936Z,980.41
2023-03-10T03:29:12.905Z,980.40
2023-03-10T03:30:12.859Z,980.34
2023-03-10T03:31:12.930Z,980.43
2023-03-10T03:32:12.950Z,980.43
2023-03-10T03:33:12.823Z,980.41
2023-03-10T03:34:12.865Z,980.43
2023-03-10T03:35:12.802Z,980.48
2023-03-10T03:36:12.789Z,980.47
2023-03-10T03:37:19.892Z,980.52
2023-03-10T03:38:12.786Z,980.53
2023-03-10T03:39:12.887Z,980.55
2023-03-10T03:40:12.806Z,980.57
2023-03-10T03:41:12.752Z,980.53
2023-03-10T03:42:12.744Z,980.55
2023-03-10T03:43:12.724Z,980.52
2023-03-10T03:44:12.708Z,980.57
2023-03-10T03:45:12.689Z,980.49
2023-03-10T03:46:12.745Z,980.45
2023-03-10T03:47:12.699Z,980.47
2023-03-10T03:48:12.684Z,980.53
2023-03-10T03:49:12.646Z,980.51
2023-03-10T03:50:12.654Z,980.48
2023-03-10T03:51:12.636Z,980.47
2023-03-10T03:52:12.621Z,980.47
2023-03-10T03:53:12.613Z,980.49
2023-03-10T03:54:12.599Z,980.51
2023-03-10T03:55:12.596Z,980.49
2023-03-10T03:56:12.579Z,980.48
2023-03-10T03:57:12.562Z,980.49
2023-03-10T03:58:12.560Z,980.47
2023-03-10T03:59:12.549Z,980.46
2023-03-10T04:00:12.541Z,980.46
2023-03-10T04:01:12.527Z,980.53
2023-03-10T04:02:12.523Z,980.45
2023-03-10T04:03:12.623Z,980.46
2023-03-10T04:04:12.495Z,980.51
2023-03-10T04:05:12.480Z,980.50
2023-03-10T04:06:12.493Z,980.50
2023-03-10T04:07:12.453Z,980.54
2023-03-10T04:08:12.449Z,980.58
2023-03-10T04:09:12.429Z,980.54
2023-03-10T04:10:12.454Z,980.59
2023-03-10T04:11:12.414Z,980.59
2023-03-10T04:12:12.406Z,980.62
2023-03-10T04:13:12.385Z,980.57
2023-03-10T04:14:12.381Z,980.60
2023-03-10T04:15:12.387Z,980.53
2023-03-10T04:16:12.382Z,980.54
2023-03-10T04:17:12.413Z,980.54
2023-03-10T04:18:12.338Z,980.60
2023-03-10T04:19:12.342Z,980.61
2023-03-10T04:20:12.320Z,980.54
2023-03-10T04:21:12.306Z,980.52
2023-03-10T04:22:12.301Z,980.50
2023-03-10T04:23:12.295Z,980.58
2023-03-10T04:24:12.272Z,980.58
2023-03-10T04:25:12.260Z,980.57
2023-03-10T04:26:12.256Z,980.57
2023-03-10T04:27:12.272Z,980.54
2023-03-10T04:28:12.231Z,980.57
2023-03-10T04:29:12.217Z,980.60
2023-03-10T04:30:12.207Z,980.62
2023-03-10T04:31:12.274Z,980.58
2023-03-10T04:32:12.258Z,980.64
2023-03-10T04:33:12.196Z,980.63
2023-03-10T04:34:12.183Z,980.61
2023-03-10T04:35:12.308Z,980.63
2023-03-10T04:36:12.222Z,980.51
2023-03-10T04:37:12.145Z,980.57
2023-03-10T04:38:12.129Z,980.56
2023-03-10T04:39:12.119Z,980.57
2023-03-10T04:40:12.108Z,980.66
2023-03-10T04:41:12.112Z,980.57
2023-03-10T04:42:12.084Z,980.47
2023-03-10T04:43:12.063Z,980.53
2023-03-10T04:44:24.420Z,980.47
2023-03-10T04:45:13.075Z,980.50
2023-03-10T04:46:12.090Z,980.56
2023-03-10T04:47:12.023Z,980.56
2023-03-10T04:48:12.016Z,980.53
2023-03-10T04:49:12.004Z,980.58
2023-03-10T04:50:12.011Z,980.54
2023-03-10T04:51:12.131Z,980.61
2023-03-10T04:52:11.978Z,980.56
2023-03-10T04:53:11.957Z,980.55
2023-03-10T04:54:11.949Z,980.52
2023-03-10T04:55:11.938Z,980.52
2023-03-10T04:56:11.937Z,980.50
2023-03-10T04:57:11.914Z,980.56
2023-03-10T04:58:11.919Z,980.58
2023-03-10T04:59:11.894Z,980.52
2023-03-10T05:00:11.950Z,980.54
2023-03-10T05:01:11.884Z,980.50
2023-03-10T05:02:11.871Z,980.52
2023-03-10T05:03:11.849Z,980.46
2023-03-10T05:04:11.888Z,980.53
2023-03-10T05:05:11.842Z,980.49
2023-03-10T05:06:11.822Z,980.56
2023-03-10T05:07:11.905Z,980.49
2023-03-10T05:08:11.802Z,980.40
2023-03-10T05:09:11.787Z,980.57
2023-03-10T05:10:11.794Z,980.49
2023-03-10T05:11:11.777Z,980.46
2023-03-10T05:12:11.754Z,980.44
2023-03-10T05:13:11.864Z,980.44
2023-03-10T05:14:11.730Z,980.47
2023-03-10T05:15:11.745Z,980.43
2023-03-10T05:16:11.777Z,980.48
2023-03-10T05:17:11.693Z,980.48
2023-03-10T05:18:11.700Z,980.44
2023-03-10T05:19:11.677Z,980.47
2023-03-10T05:20:11.663Z,980.44
2023-03-10T05:21:11.664Z,980.43
2023-03-10T05:22:11.662Z,980.43
2023-03-10T05:23:11.674Z,980.47
2023-03-10T05:24:11.618Z,980.46
2023-03-10T05:25:11.613Z,980.49
2023-03-10T05:26:11.606Z,980.45
2023-03-10T05:27:11.607Z,980.43
2023-03-10T05:28:11.578Z,980.51
2023-03-10T05:29:11.561Z,980.47
2023-03-10T05:30:11.574Z,980.51
2023-03-10T05:31:11.637Z,980.58
2023-03-10T05:32:11.625Z,980.55
2023-03-10T05:33:11.537Z,980.61
2023-03-10T05:34:11.510Z,980.62
2023-03-10T05:35:11.497Z,980.56
2023-03-10T05:36:11.596Z,980.58
2023-03-10T05:37:11.476Z,980.55
2023-03-10T05:38:11.477Z,980.57
2023-03-10T05:39:11.499Z,980.52
2023-03-10T05:40:11.460Z,980.48
2023-03-10T05:41:11.458Z,980.47
2023-03-10T05:42:11.450Z,980.49
2023-03-10T05:43:11.411Z,980.46
2023-03-10T05:44:11.407Z,980.45
2023-03-10T05:45:11.403Z,980.48
2023-03-10T05:46:11.528Z,980.41
2023-03-10T05:47:11.369Z,980.50
2023-03-10T05:48:11.379Z,980.45
2023-03-10T05:49:11.362Z,980.42
2023-03-10T05:50:11.361Z,980.37
2023-03-10T05:51:11.327Z,980.41
2023-03-10T05:52:11.325Z,980.52
2023-03-10T05:53:11.307Z,980.56
2023-03-10T05:54:11.309Z,980.64
2023-03-10T05:55:11.309Z,980.58
2023-03-10T05:56:11.287Z,980.57
2023-03-10T05:57:13.832Z,980.56
2023-03-10T05:58:11.254Z,980.59
2023-03-10T05:59:11.249Z,980.65
2023-03-10T06:00:11.251Z,980.64
2023-03-10T06:01:11.228Z,980.69
2023-03-10T06:02:11.229Z,980.65
2023-03-10T06:03:11.222Z,980.64
2023-03-10T06:04:11.237Z,980.67
2023-03-10T06:05:11.476Z,980.65
2023-03-10T06:06:11.174Z,980.66
2023-03-10T06:07:11.174Z,980.67
2023-03-10T06:08:11.143Z,980.72
2023-03-10T06:09:11.140Z,980.71
2023-03-10T06:10:11.129Z,980.69
2023-03-10T06:11:11.133Z,980.78
2023-03-10T06:12:11.123Z,980.80
2023-03-10T06:13:11.101Z,980.79
2023-03-10T06:14:11.093Z,980.84
2023-03-10T06:15:11.081Z,980.92
2023-03-10T06:16:11.096Z,980.83
2023-03-10T06:17:11.055Z,980.83
2023-03-10T06:18:11.043Z,980.77
2023-03-10T06:19:11.046Z,980.72
2023-03-10T06:20:11.039Z,980.70
2023-03-10T06:21:11.014Z,980.78
2023-03-10T06:22:10.993Z,980.78
2023-03-10T06:23:10.978Z,980.78
2023-03-10T06:24:10.993Z,980.74
2023-03-10T06:25:10.968Z,980.72
2023-03-10T06:26:10.952Z,980.75
2023-03-10T06:27:10.959Z,980.73
2023-03-10T06:28:10.930Z,980.72
2023-03-10T06:29:10.926Z,980.71
2023-03-10T06:30:10.938Z,980.74
2023-03-10T06:31:10.899Z,980.74
2023-03-10T06:32:11.051Z,980.75
2023-03-10T06:33:10.876Z,980.73
2023-03-10T06:34:10.868Z,980.68
2023-03-10T06:35:10.857Z,980.66
2023-03-10T06:36:10.934Z,980.66
2023-03-10T06:37:10.838Z,980.70
2023-03-10T06:38:10.824Z,980.75
2023-03-10T06:39:10.815Z,980.74
2023-03-10T06:40:10.803Z,980.73
2023-03-10T06:41:10.804Z,980.69
2023-03-10T06:42:10.780Z,980.71
2023-03-10T06:43:10.816Z,980.78
2023-03-10T06:44:10.764Z,980.85
2023-03-10T06:45:10.749Z,980.77
2023-03-10T06:46:10.802Z,980.86
2023-03-10T06:47:10.723Z,980.77
2023-03-10T06:48:10.735Z,980.75
2023-03-10T06:49:10.703Z,980.75
2023-03-10T06:50:10.696Z,980.70
2023-03-10T06:51:10.686Z,980.71
2023-03-10T06:52:10.690Z,980.72
2023-03-10T06:53:10.669Z,980.77
2023-03-10T06:54:11.171Z,980.77
2023-03-10T06:55:10.645Z,980.80
2023-03-10T06:56:10.630Z,980.78
2023-03-10T06:57:10.623Z,980.88
2023-03-10T06:58:10.619Z,980.87
2023-03-10T06:59:10.626Z,980.86
2023-03-10T07:00:10.605Z,980.79
2023-03-10T07:01:10.671Z,980.84
2023-03-10T07:02:10.559Z,980.79
2023-03-10T07:03:10.562Z,980.72
2023-03-10T07:04:10.537Z,980.78
2023-03-10T07:05:10.587Z,980.81
2023-03-10T07:06:10.534Z,980.87
2023-03-10T07:07:10.509Z,980.86
2023-03-10T07:08:10.504Z,980.82
2023-03-10T07:09:10.488Z,980.79
2023-03-10T07:10:10.493Z,980.78
2023-03-10T07:11:10.468Z,980.77
2023-03-10T07:12:10.475Z,980.76
2023-03-10T07:13:10.448Z,980.72
2023-03-10T07:14:10.432Z,980.76
2023-03-10T07:15:10.440Z,980.73
2023-03-10T07:16:10.423Z,980.79
2023-03-10T07:17:10.483Z,980.76
2023-03-10T07:18:10.393Z,980.74
2023-03-10T07:19:10.375Z,980.85
2023-03-10T07:20:10.360Z,980.77
2023-03-10T07:21:10.357Z,980.79
2023-03-10T07:22:11.453Z,980.84
2023-03-10T07:23:10.344Z,980.84
2023-03-10T07:24:10.321Z,980.87
2023-03-10T07:25:10.312Z,980.86
2023-03-10T07:26:10.297Z,980.95
2023-03-10T07:27:10.288Z,980.89
2023-03-10T07:28:10.293Z,980.91
2023-03-10T07:29:10.274Z,980.90
2023-03-10T07:30:10.286Z,980.89
2023-03-10T07:31:10.383Z,980.91
2023-03-10T07:32:10.299Z,980.92
2023-03-10T07:33:10.224Z,980.92
2023-03-10T07:34:10.226Z,981.00
2023-03-10T07:35:10.216Z,980.99
2023-03-10T07:36:10.294Z,980.98
2023-03-10T07:37:10.182Z,981.00
2023-03-10T07:38:10.176Z,981.00
2023-03-10T07:39:10.162Z,981.04
2023-03-10T07:40:10.166Z,981.05
2023-03-10T07:41:10.140Z,981.00
2023-03-10T07:42:10.140Z,981.01
2023-03-10T07:43:10.120Z,981.00
2023-03-10T07:44:10.100Z,980.97
2023-03-10T07:45:10.110Z,980.96
2023-03-10T07:46:10.156Z,981.04
2023-03-10T07:47:10.110Z,981.01
2023-03-10T07:48:10.056Z,981.01
2023-03-10T07:49:10.058Z,981.05
2023-03-10T07:50:10.035Z,981.04
2023-03-10T07:51:10.061Z,981.10
2023-03-10T07:52:10.016Z,981.07
2023-03-10T07:53:10.004Z,981.09
2023-03-10T07:54:09.998Z,981.12
2023-03-10T07:55:10.013Z,981.12
2023-03-10T07:56:09.969Z,981.12
2023-03-10T07:57:09.968Z,981.09
2023-03-10T07:58:10.604Z,981.01
2023-03-10T07:59:09.944Z,981.01
2023-03-10T08:00:09.929Z,980.98
2023-03-10T08:01:09.918Z,980.94
2023-03-10T08:02:09.908Z,981.02
2023-03-10T08:03:10.030Z,981.02
2023-03-10T08:04:10.026Z,980.97
2023-03-10T08:05:10.025Z,980.99
2023-03-10T08:06:09.875Z,980.93
2023-03-10T08:07:09.859Z,980.97
2023-03-10T08:08:09.843Z,980.98
2023-03-10T08:09:09.844Z,980.95
2023-03-10T08:10:09.832Z,981.01
2023-03-10T08:11:09.815Z,981.00
2023-03-10T08:12:09.801Z,981.06
2023-03-10T08:13:09.794Z,981.06
2023-03-10T08:14:09.801Z,981.07
2023-03-10T08:15:09.767Z,981.02
2023-03-10T08:16:09.825Z,981.10
2023-03-10T08:17:09.771Z,981.12
2023-03-10T08:18:09.737Z,981.12
2023-03-10T08:19:09.828Z,981.09
2023-03-10T08:20:09.721Z,981.07
2023-03-10T08:21:09.712Z,981.12
2023-03-10T08:22:09.689Z,981.09
2023-03-10T08:23:09.684Z,981.10
2023-03-10T08:24:09.672Z,981.09
2023-03-10T08:25:09.667Z,981.12
2023-03-10T08:26:09.655Z,981.07
2023-03-10T08:27:09.640Z,981.13
2023-03-10T08:28:09.626Z,981.13
2023-03-10T08:29:09.616Z,981.12
2023-03-10T08:30:09.622Z,981.11
2023-03-10T08:31:09.722Z,981.14
2023-03-10T08:32:09.761Z,981.19
2023-03-10T08:33:09.587Z,981.28
2023-03-10T08:34:09.557Z,981.26
2023-03-10T08:35:09.600Z,981.22
2023-03-10T08:36:09.571Z,981.14
2023-03-10T08:37:09.542Z,981.21
2023-03-10T08:38:09.510Z,981.18
2023-03-10T08:39:09.511Z,981.17
2023-03-10T08:40:09.491Z,981.15
2023-03-10T08:41:09.483Z,981.12
2023-03-10T08:42:09.497Z,981.13
2023-03-10T08:43:09.469Z,981.15
2023-03-10T08:44:09.451Z,981.14
2023-03-10T08:45:09.443Z,981.14
2023-03-10T08:46:10.239Z,981.13
2023-03-10T08:47:09.556Z,981.12
2023-03-10T08:48:09.434Z,981.18
2023-03-10T08:49:09.396Z,981.18
2023-03-10T08:50:09.388Z,981.15
2023-03-10T08:51:09.407Z,981.24
2023-03-10T08:52:09.365Z,981.27
2023-03-10T08:53:09.361Z,981.25
2023-03-10T08:54:09.353Z,981.24
2023-03-10T08:55:09.332Z,981.25
2023-03-10T08:56:09.321Z,981.27
2023-03-10T08:57:09.344Z,981.27
2023-03-10T08:58:09.306Z,981.26
2023-03-10T08:59:09.303Z,981.33
2023-03-10T09:00:09.283Z,981.28
2023-03-10T09:01:09.285Z,981.25
2023-03-10T09:02:09.306Z,981.31
2023-03-10T09:03:09.347Z,981.32
2023-03-10T09:04:09.255Z,981.27
2023-03-10T09:05:09.227Z,981.31
2023-03-10T09:06:09.227Z,981.29
2023-03-10T09:07:09.227Z,981.37
2023-03-10T09:08:09.196Z,981.31
2023-03-10T09:09:09.192Z,981.25
2023-03-10T09:10:09.184Z,981.30
2023-03-10T09:11:09.171Z,981.29
2023-03-10T09:12:09.157Z,981.28
2023-03-10T09:13:13.946Z,981.25
2023-03-10T09:14:09.241Z,981.32
2023-03-10T09:15:09.148Z,981.28
2023-03-10T09:16:11.205Z,981.30
2023-03-10T09:17:11.795Z,981.26
2023-03-10T09:18:09.100Z,981.22
2023-03-10T09:19:09.077Z,981.24
2023-03-10T09:20:09.062Z,981.19
2023-03-10T09:21:09.071Z,981.25
2023-03-10T09:22:09.053Z,981.21
2023-03-10T09:23:09.056Z,981.30
2023-03-10T09:24:09.015Z,981.31
2023-03-10T09:25:09.011Z,981.27
2023-03-10T09:26:08.992Z,981.30
2023-03-10T09:27:08.995Z,981.35
2023-03-10T09:28:08.976Z,981.39
2023-03-10T09:29:08.976Z,981.33
2023-03-10T09:30:08.969Z,981.36
2023-03-10T09:31:09.076Z,981.35
2023-03-10T09:32:09.148Z,981.35
2023-03-10T09:33:09.042Z,981.34
2023-03-10T09:34:08.908Z,981.35
2023-03-10T09:35:08.923Z,981.31
2023-03-10T09:36:08.912Z,981.34
2023-03-10T09:37:08.929Z,981.30
2023-03-10T09:38:16.023Z,981.26
2023-03-10T09:39:08.886Z,981.35
2023-03-10T09:40:08.847Z,981.27
2023-03-10T09:41:08.927Z,981.31
2023-03-10T09:42:08.833Z,981.28
2023-03-10T09:43:08.817Z,981.27
2023-03-10T09:44:08.816Z,981.29
2023-03-10T09:45:08.799Z,981.25
2023-03-10T09:46:08.865Z,981.25
2023-03-10T09:47:08.780Z,981.24
2023-03-10T09:48:08.759Z,981.29
2023-03-10T09:49:08.782Z,981.18
2023-03-10T09:50:08.741Z,981.23
2023-03-10T09:51:08.759Z,981.22
2023-03-10T09:52:08.717Z,981.22
2023-03-10T09:53:08.713Z,981.29
2023-03-10T09:54:08.724Z,981.23
2023-03-10T09:55:08.686Z,981.28
2023-03-10T09:56:08.693Z,981.30
2023-03-10T09:57:08.658Z,981.25
2023-03-10T09:58:08.647Z,981.31
2023-03-10T09:59:08.649Z,981.33
2023-03-10T10:00:08.636Z,981.36
2023-03-10T10:01:08.631Z,981.35
2023-03-10T10:02:08.619Z,981.39
2023-03-10T10:03:09.240Z,981.37
2023-03-10T10:04:08.755Z,981.39
2023-03-10T10:05:08.641Z,981.32
2023-03-10T10:06:08.568Z,981.34
2023-03-10T10:07:08.561Z,981.33
2023-03-10T10:08:08.539Z,981.30
2023-03-10T10:09:08.536Z,981.43
2023-03-10T10:10:08.538Z,981.39
2023-03-10T10:11:08.513Z,981.36
2023-03-10T10:12:08.500Z,981.42
2023-03-10T10:13:08.487Z,981.43
2023-03-10T10:14:13.101Z,981.46
2023-03-10T10:15:09.482Z,981.47
2023-03-10T10:16:24.683Z,981.44
2023-03-10T10:17:09.545Z,981.53
2023-03-10T10:18:18.517Z,981.52
2023-03-10T10:19:09.483Z,981.48
2023-03-10T10:20:08.404Z,981.44
2023-03-10T10:21:10.471Z,981.64
2023-03-10T10:22:08.419Z,981.59
2023-03-10T10:23:08.375Z,981.57
2023-03-10T10:24:08.366Z,981.60
2023-03-10T10:25:08.720Z,981.56
2023-03-10T10:26:08.362Z,981.54
2023-03-10T10:27:08.345Z,981.50
2023-03-10T10:28:08.328Z,981.68
2023-03-10T10:29:08.312Z,981.61
2023-03-10T10:30:08.301Z,981.65
2023-03-10T10:31:08.404Z,981.63
2023-03-10T10:32:08.275Z,981.67
2023-03-10T10:33:08.276Z,981.73
2023-03-10T10:34:08.250Z,981.79
2023-03-10T10:35:08.244Z,981.68
2023-03-10T10:36:08.396Z,981.66
2023-03-10T10:37:08.226Z,981.70
2023-03-10T10:38:08.217Z,981.68
2023-03-10T10:39:08.201Z,981.66
2023-03-10T10:40:09.375Z,981.63
2023-03-10T10:41:08.292Z,981.67
2023-03-10T10:42:08.186Z,981.69
2023-03-10T10:43:08.172Z,981.68
2023-03-10T10:44:08.159Z,981.64
2023-03-10T10:45:08.140Z,981.67
2023-03-10T10:46:08.206Z,981.69
2023-03-10T10:47:08.121Z,981.68
2023-03-10T10:48:08.125Z,981.76
2023-03-10T10:49:08.106Z,981.75
2023-03-10T10:50:08.082Z,981.72
2023-03-10T10:51:08.074Z,981.72
2023-03-10T10:52:08.070Z,981.68
2023-03-10T10:53:08.071Z,981.69
2023-03-10T10:54:08.042Z,981.69
2023-03-10T10:55:08.035Z,981.68
2023-03-10T10:56:08.030Z,981.67
2023-03-10T10:57:08.020Z,981.79
2023-03-10T10:58:08.043Z,981.77
2023-03-10T10:59:07.991Z,981.78
2023-03-10T11:00:07.986Z,981.81
2023-03-10T11:01:08.063Z,981.82
2023-03-10T11:02:08.014Z,981.77
2023-03-10T11:03:07.961Z,981.74
2023-03-10T11:04:07.969Z,981.75
2023-03-10T11:05:07.928Z,981.77
2023-03-10T11:06:07.949Z,981.82
2023-03-10T11:07:07.902Z,981.78
2023-03-10T11:08:07.888Z,981.75
2023-03-10T11:09:08.593Z,981.76
2023-03-10T11:10:07.878Z,981.73
2023-03-10T11:11:07.865Z,981.73
2023-03-10T11:12:07.850Z,981.70
2023-03-10T11:13:07.831Z,981.73
2023-03-10T11:14:07.858Z,981.69
2023-03-10T11:15:07.842Z,981.67
2023-03-10T11:16:07.876Z,981.68
2023-03-10T11:17:07.807Z,981.70
2023-03-10T11:18:07.784Z,981.69
2023-03-10T11:19:07.767Z,981.66
2023-03-10T11:20:07.772Z,981.63
2023-03-10T11:21:07.754Z,981.69
2023-03-10T11:22:07.758Z,981.66
2023-03-10T11:23:07.725Z,981.69
2023-03-10T11:24:07.725Z,981.76
2023-03-10T11:25:07.710Z,981.73
2023-03-10T11:26:07.698Z,981.69
2023-03-10T11:27:07.691Z,981.67
2023-03-10T11:28:07.676Z,981.67
2023-03-10T11:29:07.717Z,981.71
2023-03-10T11:30:07.696Z,981.72
2023-03-10T11:31:07.707Z,981.72
2023-03-10T11:32:07.630Z,981.75
2023-03-10T11:33:07.625Z,981.74
2023-03-10T11:34:07.608Z,981.71
2023-03-10T11:35:07.600Z,981.70
2023-03-10T11:36:07.661Z,981.68
2023-03-10T11:37:07.570Z,981.63
2023-03-10T11:38:07.610Z,981.62
2023-03-10T11:39:07.548Z,981.63
2023-03-10T11:40:07.624Z,981.62
2023-03-10T11:41:07.541Z,981.63
2023-03-10T11:42:07.525Z,981.62
2023-03-10T11:43:07.512Z,981.69
2023-03-10T11:44:07.496Z,981.74
2023-03-10T11:45:07.485Z,981.74
2023-03-10T11:46:07.658Z,981.68
2023-03-10T11:47:07.487Z,981.72
2023-03-10T11:48:07.455Z,981.66
2023-03-10T11:49:07.445Z,981.66
2023-03-10T11:50:07.432Z,981.57
2023-03-10T11:51:07.432Z,981.54
2023-03-10T11:52:07.414Z,981.53
2023-03-10T11:53:07.416Z,981.47
2023-03-10T11:54:07.417Z,981.49
2023-03-10T11:55:07.376Z,981.49
2023-03-10T11:56:07.367Z,981.52
2023-03-10T11:57:07.348Z,981.47
2023-03-10T11:58:07.358Z,981.56
2023-03-10T11:59:07.337Z,981.50
2023-03-10T12:00:07.335Z,981.47
2023-03-10T12:01:07.319Z,981.48
2023-03-10T12:02:07.332Z,981.47
2023-03-10T12:03:07.316Z,981.39
2023-03-10T12:04:07.323Z,981.25
2023-03-10T12:05:07.338Z,981.32
2023-03-10T12:06:07.259Z,981.28
2023-03-10T12:07:07.240Z,981.30
2023-03-10T12:08:07.245Z,981.31
2023-03-10T12:09:07.244Z,981.29
2023-03-10T12:10:07.212Z,981.32
2023-03-10T12:11:07.215Z,981.31
2023-03-10T12:12:07.192Z,981.22
2023-03-10T12:13:07.189Z,981.25
2023-03-10T12:14:07.169Z,981.26
2023-03-10T12:15:07.195Z,981.23
2023-03-10T12:16:07.226Z,981.22
2023-03-10T12:17:07.134Z,981.17
2023-03-10T12:18:07.150Z,981.21
2023-03-10T12:19:07.127Z,981.19
2023-03-10T12:20:07.135Z,981.18
2023-03-10T12:21:07.104Z,981.17
2023-03-10T12:22:07.080Z,981.18
2023-03-10T12:23:07.066Z,981.16
2023-03-10T12:24:07.065Z,981.16
2023-03-10T12:25:07.042Z,981.13
2023-03-10T12:26:07.045Z,981.10
2023-03-10T12:27:07.051Z,981.12
2023-03-10T12:28:07.014Z,981.09